Terminal Aerodrome Forecast
Issued by NWS Tulsa, OK

Home | Current Version | Previous Version | Text Only | Print | Product List | Glossary On
Versions: 1 2 3 4 5 6 7 8 9 10 11 12 13 14 15
226
FTUS44 KTSA 171525 AAB
TAFFSM
TAF AMD
KFSM 171525Z 1715/1812 05003KT 3SM BR OVC008
      TEMPO 1715/1718 2SM -DZ BR OVC003
     FM171800 14005KT P6SM OVC015
     FM180300 30004KT 4SM BR OVC007=

USA.gov is the U.S. government's official web portal to all federal, state and local government web resources and services.